Time;durP1;ratioP1;P1;durP2;ratioP2;P2;SDS_P1;SDS_P2;PMS_P1;PMS_P2;Temp;Humidity;BMP_temperature;BMP_pressure;BME280_temperature;BME280_humidity;BME280_pressure;Samples;Min_cycle;Max_cycle;Signal;HPM_P1;HPM_P2
2022/04/25 00:02:12;;;;;;;23.45;14.43;;;;;;;;;;6123195;23;20131;-87
2022/04/25 00:04:38;;;;;;;24.45;14.05;;;;;;;;;;6101253;23;20013;-88
2022/04/25 00:07:05;;;;;;;30.13;16.40;;;;;;;;;;6102559;23;20013;-87
2022/04/25 00:09:31;;;;;;;30.58;17.02;;;;;;;;;;6126267;23;20023;-88
2022/04/25 00:11:57;;;;;;;35.00;18.02;;;;;;;;;;6125416;23;20162;-88
2022/04/25 00:14:23;;;;;;;36.13;18.38;;;;;;;;;;6125092;23;20068;-88
2022/04/25 00:16:55;;;;;;;31.15;14.98;;;;;;;;;;6125541;23;20017;-87
2022/04/25 00:19:22;;;;;;;29.95;16.10;;;;;;;;;;6101678;23;20012;-88
2022/04/25 00:21:51;;;;;;;25.35;17.05;;;;;;;;;;6099577;23;20021;-88
2022/04/25 00:24:18;;;;;;;28.20;16.15;;;;;;;;;;6097544;23;20079;-87
2022/04/25 00:26:44;;;;;;;28.38;17.15;;;;;;;;;;6123121;23;20047;-88
2022/04/25 00:29:11;;;;;;;27.83;18.20;;;;;;;;;;6100737;23;20013;-87
2022/04/25 00:31:37;;;;;;;28.38;17.40;;;;;;;;;;6105122;23;20008;-88
2022/04/25 00:34:03;;;;;;;28.92;17.92;;;;;;;;;;6121919;23;20100;-88
2022/04/25 00:36:29;;;;;;;32.75;19.48;;;;;;;;;;6126779;23;20025;-89
2022/04/25 00:38:55;;;;;;;30.38;17.77;;;;;;;;;;6125889;23;20009;-88
2022/04/25 00:41:21;;;;;;;31.33;17.98;;;;;;;;;;6124463;23;20748;-87
2022/04/25 00:43:48;;;;;;;31.20;18.58;;;;;;;;;;6122004;23;20470;-89
2022/04/25 00:46:25;;;;;;;30.80;17.73;;;;;;;;;;6100817;23;20032;-88
2022/04/25 00:48:51;;;;;;;27.73;17.65;;;;;;;;;;6125209;23;20052;-87
2022/04/25 00:51:18;;;;;;;29.52;17.17;;;;;;;;;;6100625;23;20410;-88
2022/04/25 00:53:45;;;;;;;29.55;17.25;;;;;;;;;;6096891;23;20374;-88
2022/04/25 00:56:13;;;;;;;29.00;17.02;;;;;;;;;;6124751;23;20020;-88
2022/04/25 00:58:46;;;;;;;32.88;18.88;;;;;;;;;;6124544;23;20017;-88
2022/04/25 01:01:13;;;;;;;33.60;18.45;;;;;;;;;;6122240;23;20013;-87
2022/04/25 01:03:39;;;;;;;28.80;17.35;;;;;;;;;;6097991;23;20020;-88
2022/04/25 01:06:06;;;;;;;31.88;18.35;;;;;;;;;;6102794;23;20021;-86
2022/04/25 01:08:34;;;;;;;35.45;20.00;;;;;;;;;;6126314;23;20040;-88
2022/04/25 01:11:02;;;;;;;34.38;20.10;;;;;;;;;;6099683;23;20331;-87
2022/04/25 01:13:28;;;;;;;36.78;21.02;;;;;;;;;;6124579;23;20023;-88
2022/04/25 01:15:54;;;;;;;32.88;19.48;;;;;;;;;;6098650;23;20082;-89
2022/04/25 01:18:20;;;;;;;32.88;21.17;;;;;;;;;;6123497;23;20468;-87
2022/04/25 01:20:47;;;;;;;36.10;20.35;;;;;;;;;;6099712;23;20009;-88
2022/04/25 01:28:42;;;;;;;35.67;20.75;;;;;;;;;;6128119;23;20079;-87
2022/04/25 01:31:08;;;;;;;31.90;19.45;;;;;;;;;;6099891;23;20450;-88
2022/04/25 01:33:35;;;;;;;32.88;20.35;;;;;;;;;;6124480;23;20017;-87
2022/04/25 01:36:02;;;;;;;30.23;20.20;;;;;;;;;;6098819;23;20012;-89
2022/04/25 01:38:29;;;;;;;37.33;20.25;;;;;;;;;;6103704;23;20019;-89
2022/04/25 01:41:01;;;;;;;34.47;19.40;;;;;;;;;;6103234;23;20066;-86
2022/04/25 01:43:35;;;;;;;35.67;21.25;;;;;;;;;;6101685;23;20020;-87
2022/04/25 01:46:03;;;;;;;33.75;20.17;;;;;;;;;;6124947;23;20345;-88
2022/04/25 01:48:32;;;;;;;30.50;19.67;;;;;;;;;;6126251;23;20462;-87
2022/04/25 01:50:58;;;;;;;35.17;19.90;;;;;;;;;;6124824;23;20104;-88
2022/04/25 01:53:24;;;;;;;38.38;19.95;;;;;;;;;;6123010;23;20039;-87
2022/04/25 01:55:51;;;;;;;34.72;20.08;;;;;;;;;;6122578;23;20009;-87
2022/04/25 01:58:29;;;;;;;30.73;19.83;;;;;;;;;;6128826;23;20326;-88
2022/04/25 02:00:56;;;;;;;34.40;19.25;;;;;;;;;;6100614;23;20013;-88
2022/04/25 02:03:22;;;;;;;30.98;19.17;;;9.70;99.90;;;;;;6100993;23;20017;-86
2022/04/25 02:05:47;;;;;;;30.98;18.60;;;7.10;99.90;;;;;;6125784;23;20222;-88
2022/04/25 02:08:14;;;;;;;32.38;18.58;;;6.90;99.90;;;;;;6104684;23;20435;-87
2022/04/25 02:10:39;;;;;;;28.70;17.42;;;6.90;99.90;;;;;;6103392;23;20012;-89
2022/04/25 02:13:05;;;;;;;31.35;18.15;;;6.90;99.90;;;;;;6103383;23;20099;-89
2022/04/25 02:15:31;;;;;;;27.95;19.05;;;6.80;99.90;;;;;;6106673;23;20092;-89
2022/04/25 02:17:57;;;;;;;31.80;19.00;;;6.80;99.90;;;;;;6104322;23;20051;-88
2022/04/25 02:20:27;;;;;;;33.08;18.35;;;6.80;99.90;;;;;;6103958;23;20053;-88
2022/04/25 02:22:53;;;;;;;33.42;18.20;;;6.80;99.90;;;;;;6104497;23;20024;-88
2022/04/25 02:25:20;;;;;;;30.48;17.58;;;6.80;99.90;;;;;;6104923;23;20083;-88
2022/04/25 02:27:46;;;;;;;33.28;18.25;;;6.80;99.90;;;;;;6103962;23;20017;-89
2022/04/25 02:30:12;;;;;;;34.25;18.08;;;6.90;99.90;;;;;;6104967;23;20078;-91
2022/04/25 02:32:38;;;;;;;34.60;17.90;;;6.80;99.90;;;;;;6104332;23;20013;-89
2022/04/25 02:35:05;;;;;;;32.10;18.33;;;6.90;99.90;;;;;;6106530;23;20013;-90
2022/04/25 02:37:33;;;;;;;33.00;18.02;;;6.90;99.90;;;;;;6105710;23;20013;-88
2022/04/25 02:39:59;;;;;;;35.25;19.05;;;6.90;99.90;;;;;;6106511;23;20088;-88
2022/04/25 02:42:25;;;;;;;34.65;18.50;;;6.90;99.90;;;;;;6104694;23;20051;-88
2022/04/25 02:44:51;;;;;;;34.33;17.65;;;6.90;99.90;;;;;;6104529;23;20016;-88
2022/04/25 02:47:17;;;;;;;31.33;17.55;;;6.90;99.90;;;;;;6105874;23;20099;-89
2022/04/25 02:49:43;;;;;;;32.65;19.60;;;7.00;99.90;;;;;;6104942;23;20036;-90
2022/04/25 02:52:09;;;;;;;34.25;17.27;;;7.00;99.90;;;;;;6108453;23;20040;-87
2022/04/25 02:54:35;;;;;;;35.85;18.55;;;7.00;99.90;;;;;;6105528;23;20016;-88
2022/04/25 02:57:00;;;;;;;28.48;16.23;;;7.00;99.90;;;;;;6104363;23;20020;-88
2022/04/25 02:59:27;;;;;;;30.98;16.35;;;7.00;99.90;;;;;;6103631;23;20019;-88
2022/04/25 03:01:56;;;;;;;30.90;17.30;;;6.90;99.90;;;;;;6106149;23;20220;-87
2022/04/25 03:04:21;;;;;;;33.25;17.55;;;7.00;99.90;;;;;;6105120;23;20087;-89
2022/04/25 03:06:48;;;;;;;32.08;16.95;;;7.00;99.90;;;;;;6105355;23;20484;-88
2022/04/25 03:09:14;;;;;;;34.65;19.40;;;7.00;99.90;;;;;;6128774;23;20017;-88
2022/04/25 03:11:40;;;;;;;33.60;17.77;;;7.00;99.90;;;;;;6105991;23;20020;-87
2022/04/25 03:14:08;;;;;;;31.42;16.52;;;7.00;99.90;;;;;;6105965;23;20041;-88
2022/04/25 03:16:34;;;;;;;34.50;17.65;;;6.90;99.90;;;;;;6106807;23;20385;-89
2022/04/25 03:19:00;;;;;;;30.60;17.73;;;7.00;99.90;;;;;;6107723;23;20020;-89
2022/04/25 03:21:26;;;;;;;33.97;19.77;;;6.90;99.90;;;;;;6108200;23;20009;-86
2022/04/25 03:23:56;;;;;;;34.08;18.35;;;7.00;99.90;;;;;;6107366;23;20052;-88
2022/04/25 03:26:22;;;;;;;32.65;18.65;;;7.00;99.90;;;;;;6114267;23;20017;-88
2022/04/25 03:28:48;;;;;;;37.63;17.88;;;7.00;99.90;;;;;;6106358;23;20017;-88
2022/04/25 03:31:13;;;;;;;39.05;19.08;;;7.00;99.90;;;;;;6105436;23;20017;-89
2022/04/25 03:33:40;;;;;;;31.73;15.43;;;7.00;99.90;;;;;;6106048;23;20092;-88
2022/04/25 03:36:06;;;;;;;31.27;17.15;;;7.00;99.90;;;;;;6082577;23;20045;-88
2022/04/25 03:38:32;;;;;;;29.52;16.95;;;7.00;99.90;;;;;;6106791;23;20013;-88
2022/04/25 03:40:59;;;;;;;32.05;16.45;;;7.00;99.90;;;;;;6127515;23;20017;-87
2022/04/25 03:43:25;;;;;;;35.00;17.73;;;6.90;99.90;;;;;;6106248;23;20021;-88
2022/04/25 03:45:51;;;;;;;29.42;16.65;;;7.00;99.90;;;;;;6128799;23;20024;-87
2022/04/25 03:48:17;;;;;;;26.15;16.38;;;7.00;99.90;;;;;;6106878;23;20019;-87
2022/04/25 03:50:44;;;;;;;31.08;16.55;;;6.90;99.90;;;;;;6105976;23;20096;-88
2022/04/25 03:53:11;;;;;;;33.03;17.35;;;7.00;99.90;;;;;;6131824;23;20017;-87
2022/04/25 03:58:30;;;;;;;27.65;16.13;;;7.00;99.90;;;;;;6161236;23;20013;-89
2022/04/25 04:00:57;;;;;;;26.63;15.45;;;6.90;99.90;;;;;;6134014;23;20687;-87
2022/04/25 04:03:26;;;;;;;38.88;16.60;;;6.90;99.90;;;;;;6107290;23;20115;-86
2022/04/25 04:05:53;;;;;;;26.40;15.27;;;6.90;99.90;;;;;;6105441;23;20017;-87
2022/04/25 04:08:19;;;;;;;26.00;15.23;;;6.90;99.90;;;;;;6106887;23;20104;-88
2022/04/25 04:10:48;;;;;;;29.77;16.42;;;7.00;99.90;;;;;;6131827;23;20342;-88
2022/04/25 04:13:14;;;;;;;28.05;15.20;;;6.90;99.90;;;;;;6130089;23;20563;-88
2022/04/25 04:15:40;;;;;;;27.02;15.95;;;7.00;99.90;;;;;;6108734;23;20044;-88
2022/04/25 04:18:06;;;;;;;30.52;15.05;;;7.00;99.90;;;;;;6154455;23;20020;-87
2022/04/25 04:20:33;;;;;;;26.25;15.07;;;6.90;99.90;;;;;;6106401;23;20013;-87
2022/04/25 04:22:59;;;;;;;30.48;15.55;;;6.90;99.90;;;;;;6104265;23;20355;-88
2022/04/25 04:25:24;;;;;;;29.48;16.55;;;6.90;99.90;;;;;;6106202;23;20075;-88
2022/04/25 04:27:53;;;;;;;27.60;16.35;;;6.90;99.90;;;;;;6109217;23;20048;-88
2022/04/25 04:30:19;;;;;;;28.48;16.73;;;6.90;99.90;;;;;;6104172;23;20387;-89
2022/04/25 04:32:46;;;;;;;26.05;15.77;;;6.90;99.90;;;;;;6128984;23;20095;-87
2022/04/25 04:35:15;;;;;;;28.33;16.55;;;7.00;99.90;;;;;;6132309;23;20477;-87
2022/04/25 04:37:41;;;;;;;29.52;16.23;;;7.00;99.90;;;;;;6129995;23;20020;-88
2022/04/25 04:42:56;;;;;;;31.58;15.00;;;7.00;99.90;;;;;;6149613;23;20678;-86
2022/04/25 04:45:25;;;;;;;24.20;14.55;;;7.00;99.90;;;;;;6127291;23;20100;-87
2022/04/25 04:47:51;;;;;;;29.90;16.20;;;7.00;99.90;;;;;;6100456;23;20080;-87
2022/04/25 04:50:17;;;;;;;31.25;15.93;;;7.00;99.90;;;;;;6126249;23;20017;-86
2022/04/25 04:52:44;;;;;;;26.52;15.50;;;7.00;99.90;;;;;;6124930;23;20072;-89
2022/04/25 04:55:11;;;;;;;26.67;14.35;;;7.10;99.90;;;;;;6123964;23;20048;-87
2022/04/25 04:57:38;;;;;;;25.52;15.55;;;7.10;99.90;;;;;;6101058;23;20015;-87
2022/04/25 05:00:10;;;;;;;27.52;14.70;;;7.10;99.90;;;;;;6129031;23;20013;-87
2022/04/25 05:02:36;;;;;;;31.65;13.55;;;7.10;99.90;;;;;;6125983;23;20346;-87
2022/04/25 05:05:05;;;;;;;26.83;15.48;;;7.10;99.90;;;;;;6103218;23;20024;-88
2022/04/25 05:07:31;;;;;;;26.55;14.73;;;7.10;99.90;;;;;;6102878;23;20017;-87
2022/04/25 05:09:57;;;;;;;28.23;14.40;;;7.10;99.90;;;;;;6103073;23;20717;-86
2022/04/25 05:12:23;;;;;;;27.83;14.05;;;7.10;99.90;;;;;;6149296;23;20021;-87
2022/04/25 05:14:49;;;;;;;23.10;13.68;;;7.10;99.90;;;;;;6124746;23;20016;-87
2022/04/25 05:17:15;;;;;;;22.98;13.27;;;7.10;99.90;;;;;;6123718;23;20013;-87
2022/04/25 05:19:41;;;;;;;21.52;13.63;;;7.10;99.90;;;;;;6097701;23;20017;-88
2022/04/25 05:22:07;;;;;;;23.85;13.90;;;7.10;99.90;;;;;;6123511;23;20013;-86
2022/04/25 05:24:33;;;;;;;22.40;13.63;;;7.10;99.90;;;;;;6097891;23;20630;-89
2022/04/25 05:27:02;;;;;;;23.08;13.80;;;7.10;99.90;;;;;;6099225;23;20166;-87
2022/04/25 05:29:27;;;;;;;23.08;12.80;;;7.20;99.90;;;;;;6102462;23;20013;-88
2022/04/25 05:31:54;;;;;;;29.58;14.75;;;7.20;99.90;;;;;;6103392;23;20012;-87
2022/04/25 05:34:19;;;;;;;28.02;14.50;;;7.20;99.90;;;;;;6103424;23;20021;-88
2022/04/25 05:36:53;;;;;;;28.73;14.73;;;7.20;99.90;;;;;;6079406;23;20020;-85
